Ardmore, SD

3:15 AM MDT on July 29, 2014 (GMT -0600)
Chadron Municipal (KCDR) Elev 3297 ft | 42.84 °N, 103.10 °W | Change Station

Current weather conditions updated 22 minutes ago

Clear
Clear
60 °F
Feels Like 60 °F
N
7
Wind Variable Wind from NE

Today is forecast to be Much Cooler than yesterday. Slight chance of a thunderstorm.

Today
High -- | Low -- °F
--% Chance of Precip.
Yesterday
High -- | Low -- °F
Precip. -- in
5:42 AM 8:19 PM
Waxing Crescent, 5% visible
Pressure 30.15 in
Visibility 10.0 miles
Clouds Clear
Dew Point 52 °F
Humidity 75%
Rainfall 0.00 in
Snow Depth Not available.
UV 0 out of 12
Pollen 7.00 out of 12
Air Quality Not available.
Flu Activity Not available.
METAR KCDR 290853Z AUTO 05006KT 10SM CLR 16/11 A3022 RMK AO2 SLP209 T01560111 58004

More Conditions Fewer Conditions

Pressure 30.15 in
Visibility 10.0 miles
Clouds Clear
Dew Point 52 °F
Humidity 75%
Rainfall 0.00 in
Snow Depth Not available.
UV 0 out of 12
Pollen 7.00 out of 12
Air Quality Not available.
Flu Activity Not available.
METAR KCDR 290853Z AUTO 05006KT 10SM CLR 16/11 A3022 RMK AO2 SLP209 T01560111 58004

More Conditions Fewer Conditions

10-Day Weather Forecast

Almanac

Astronomy

Jul. 29, 2014 Rise Set
Actual Time 5:42 AM MDT 8:19 PM MDT
Civil Twilight 5:09 AM MDT 8:51 PM MDT
Nautical Twilight 4:28 AM MDT 9:32 PM MDT
Astronomical Twilight 3:42 AM MDT 10:18 PM MDT
Moon 8:26 AM MDT 9:26 PM MDT
Length of Visible Light 15h 41m
Length of Day
14h 36m
Tomorrow will be 2m 9s shorter.
Waxing Crescent, 5% of the Moon is Illuminated
Today
Waxing Crescent
Aug 3
First Quarter
Aug 10
Full
Aug 17
Last Quarter
Aug 25
New

Today's Extremes

State Highs State Lows

Community

WunderPhotos

Upload Photos

1,738,663 photos uploaded!

Nearby

Snow Depth

Station Depth Elevation
Blind Park 0 in 6890 ft

Earthquake Activity

City Distance Mag. Time & Date
No recent earthquake activity has been reported nearby.
Minimum magnitude displayed is 2.5.

Coastal Water Temperatures

Place Temperature
No Stations Reporting

Nearby Weather Stations

There are no personal weather stations in this area.